sensor_id;sensor_type;location;lat;lon;timestamp;P1;durP1;ratioP1;P2;durP2;ratioP2
1082;SDS011;530;51.448;7.238;2022-12-13T00:01:13;20.80;;;14.37;;
1082;SDS011;530;51.448;7.238;2022-12-13T00:03:39;17.27;;;12.40;;
1082;SDS011;530;51.448;7.238;2022-12-13T00:06:05;18.47;;;12.60;;
1082;SDS011;530;51.448;7.238;2022-12-13T00:08:32;24.00;;;14.47;;
1082;SDS011;530;51.448;7.238;2022-12-13T00:10:58;23.50;;;15.77;;
1082;SDS011;530;51.448;7.238;2022-12-13T00:13:26;20.57;;;15.00;;
1082;SDS011;530;51.448;7.238;2022-12-13T00:15:59;19.23;;;13.60;;
1082;SDS011;530;51.448;7.238;2022-12-13T00:18:26;23.77;;;15.03;;
1082;SDS011;530;51.448;7.238;2022-12-13T00:20:52;19.93;;;14.20;;
1082;SDS011;530;51.448;7.238;2022-12-13T00:23:19;20.97;;;13.50;;
1082;SDS011;530;51.448;7.238;2022-12-13T00:25:45;19.70;;;13.83;;
1082;SDS011;530;51.448;7.238;2022-12-13T00:28:11;22.47;;;15.17;;
1082;SDS011;530;51.448;7.238;2022-12-13T00:30:37;21.80;;;13.70;;
1082;SDS011;530;51.448;7.238;2022-12-13T00:33:04;20.30;;;13.97;;
1082;SDS011;530;51.448;7.238;2022-12-13T00:35:31;20.90;;;12.57;;
1082;SDS011;530;51.448;7.238;2022-12-13T00:37:57;21.53;;;14.03;;
1082;SDS011;530;51.448;7.238;2022-12-13T00:40:23;21.20;;;13.17;;
1082;SDS011;530;51.448;7.238;2022-12-13T00:42:48;18.77;;;13.23;;
1082;SDS011;530;51.448;7.238;2022-12-13T00:45:14;21.37;;;13.33;;
1082;SDS011;530;51.448;7.238;2022-12-13T00:47:40;23.17;;;13.70;;
1082;SDS011;530;51.448;7.238;2022-12-13T00:50:05;22.30;;;13.87;;
1082;SDS011;530;51.448;7.238;2022-12-13T00:52:34;16.53;;;10.93;;
1082;SDS011;530;51.448;7.238;2022-12-13T00:55:00;20.97;;;13.50;;
1082;SDS011;530;51.448;7.238;2022-12-13T00:57:26;18.10;;;12.70;;
1082;SDS011;530;51.448;7.238;2022-12-13T00:59:51;19.77;;;13.03;;
1082;SDS011;530;51.448;7.238;2022-12-13T01:02:17;17.57;;;12.90;;
1082;SDS011;530;51.448;7.238;2022-12-13T01:04:42;18.10;;;13.23;;
1082;SDS011;530;51.448;7.238;2022-12-13T01:07:08;22.50;;;13.70;;
1082;SDS011;530;51.448;7.238;2022-12-13T01:09:34;19.97;;;12.23;;
1082;SDS011;530;51.448;7.238;2022-12-13T01:12:00;20.70;;;13.20;;
1082;SDS011;530;51.448;7.238;2022-12-13T01:14:32;17.70;;;12.83;;
1082;SDS011;530;51.448;7.238;2022-12-13T01:16:59;20.70;;;13.00;;
1082;SDS011;530;51.448;7.238;2022-12-13T01:19:25;20.43;;;13.73;;
1082;SDS011;530;51.448;7.238;2022-12-13T01:21:59;18.37;;;12.70;;
1082;SDS011;530;51.448;7.238;2022-12-13T01:24:26;21.67;;;14.27;;
1082;SDS011;530;51.448;7.238;2022-12-13T01:26:53;18.40;;;12.40;;
1082;SDS011;530;51.448;7.238;2022-12-13T01:29:20;19.90;;;12.27;;
1082;SDS011;530;51.448;7.238;2022-12-13T01:31:47;19.20;;;13.30;;
1082;SDS011;530;51.448;7.238;2022-12-13T01:34:14;23.20;;;14.13;;
1082;SDS011;530;51.448;7.238;2022-12-13T01:36:42;20.10;;;13.27;;
1082;SDS011;530;51.448;7.238;2022-12-13T01:39:09;18.63;;;13.33;;
1082;SDS011;530;51.448;7.238;2022-12-13T01:41:36;19.87;;;12.57;;
1082;SDS011;530;51.448;7.238;2022-12-13T01:44:04;19.23;;;13.13;;
1082;SDS011;530;51.448;7.238;2022-12-13T01:46:31;19.60;;;13.23;;
1082;SDS011;530;51.448;7.238;2022-12-13T01:51:41;29.47;;;13.37;;
1082;SDS011;530;51.448;7.238;2022-12-13T01:54:12;23.67;;;15.07;;
1082;SDS011;530;51.448;7.238;2022-12-13T01:56:42;21.73;;;14.27;;
1082;SDS011;530;51.448;7.238;2022-12-13T01:59:12;20.97;;;14.60;;
1082;SDS011;530;51.448;7.238;2022-12-13T02:01:41;21.07;;;13.93;;
1082;SDS011;530;51.448;7.238;2022-12-13T02:04:07;20.07;;;13.57;;
1082;SDS011;530;51.448;7.238;2022-12-13T02:06:34;20.53;;;13.90;;
1082;SDS011;530;51.448;7.238;2022-12-13T02:09:04;23.60;;;15.33;;
1082;SDS011;530;51.448;7.238;2022-12-13T02:11:31;21.50;;;14.00;;
1082;SDS011;530;51.448;7.238;2022-12-13T02:13:59;20.00;;;13.33;;
1082;SDS011;530;51.448;7.238;2022-12-13T02:19:00;19.40;;;13.80;;
1082;SDS011;530;51.448;7.238;2022-12-13T02:32:51;18.90;;;12.87;;
1082;SDS011;530;51.448;7.238;2022-12-13T02:35:27;18.50;;;14.03;;
1082;SDS011;530;51.448;7.238;2022-12-13T02:38:19;22.60;;;13.90;;
1082;SDS011;530;51.448;7.238;2022-12-13T02:43:34;24.50;;;13.00;;
1082;SDS011;530;51.448;7.238;2022-12-13T02:46:06;19.80;;;13.10;;
1082;SDS011;530;51.448;7.238;2022-12-13T02:48:36;19.73;;;12.67;;
1082;SDS011;530;51.448;7.238;2022-12-13T02:51:05;19.70;;;13.30;;
1082;SDS011;530;51.448;7.238;2022-12-13T02:53:33;19.40;;;13.20;;
1082;SDS011;530;51.448;7.238;2022-12-13T02:56:00;17.90;;;13.00;;
1082;SDS011;530;51.448;7.238;2022-12-13T02:58:31;23.37;;;13.63;;
1082;SDS011;530;51.448;7.238;2022-12-13T03:15:42;20.57;;;13.30;;
1082;SDS011;530;51.448;7.238;2022-12-13T03:18:14;20.83;;;13.20;;
1082;SDS011;530;51.448;7.238;2022-12-13T03:20:49;22.03;;;13.40;;
1082;SDS011;530;51.448;7.238;2022-12-13T03:23:18;21.20;;;13.50;;
1082;SDS011;530;51.448;7.238;2022-12-13T03:25:46;20.67;;;13.67;;
1082;SDS011;530;51.448;7.238;2022-12-13T03:28:14;21.23;;;13.63;;
1082;SDS011;530;51.448;7.238;2022-12-13T03:30:40;19.90;;;13.70;;
1082;SDS011;530;51.448;7.238;2022-12-13T03:33:06;21.00;;;14.00;;
1082;SDS011;530;51.448;7.238;2022-12-13T03:35:31;19.97;;;12.57;;
1082;SDS011;530;51.448;7.238;2022-12-13T03:37:57;24.13;;;13.10;;
1082;SDS011;530;51.448;7.238;2022-12-13T03:40:26;18.10;;;12.60;;
1082;SDS011;530;51.448;7.238;2022-12-13T03:42:53;20.60;;;13.00;;
1082;SDS011;530;51.448;7.238;2022-12-13T03:45:19;24.77;;;12.77;;
1082;SDS011;530;51.448;7.238;2022-12-13T03:47:45;18.07;;;13.03;;
1082;SDS011;530;51.448;7.238;2022-12-13T03:50:11;18.00;;;13.03;;
1082;SDS011;530;51.448;7.238;2022-12-13T03:52:37;19.23;;;13.40;;
1082;SDS011;530;51.448;7.238;2022-12-13T03:55:02;22.00;;;14.10;;
1082;SDS011;530;51.448;7.238;2022-12-13T03:57:28;21.80;;;13.10;;
1082;SDS011;530;51.448;7.238;2022-12-13T03:59:54;20.37;;;12.67;;
1082;SDS011;530;51.448;7.238;2022-12-13T04:02:20;19.87;;;12.47;;
1082;SDS011;530;51.448;7.238;2022-12-13T04:04:45;20.20;;;13.27;;
1082;SDS011;530;51.448;7.238;2022-12-13T04:07:11;21.20;;;12.57;;
1082;SDS011;530;51.448;7.238;2022-12-13T04:09:36;20.57;;;13.20;;
1082;SDS011;530;51.448;7.238;2022-12-13T04:12:02;20.37;;;12.53;;
1082;SDS011;530;51.448;7.238;2022-12-13T04:14:46;21.07;;;12.30;;
1082;SDS011;530;51.448;7.238;2022-12-13T04:17:12;20.17;;;12.67;;
1082;SDS011;530;51.448;7.238;2022-12-13T04:19:37;19.07;;;12.10;;
1082;SDS011;530;51.448;7.238;2022-12-13T04:22:03;21.83;;;13.07;;
1082;SDS011;530;51.448;7.238;2022-12-13T04:24:29;21.67;;;12.80;;
1082;SDS011;530;51.448;7.238;2022-12-13T04:26:54;18.30;;;12.03;;
1082;SDS011;530;51.448;7.238;2022-12-13T04:29:20;20.20;;;13.00;;
1082;SDS011;530;51.448;7.238;2022-12-13T04:31:45;19.20;;;12.50;;
1082;SDS011;530;51.448;7.238;2022-12-13T04:34:11;20.93;;;13.23;;
1082;SDS011;530;51.448;7.238;2022-12-13T04:36:37;20.50;;;11.90;;
1082;SDS011;530;51.448;7.238;2022-12-13T04:39:03;17.17;;;12.80;;
1082;SDS011;530;51.448;7.238;2022-12-13T04:41:33;19.10;;;12.13;;
1082;SDS011;530;51.448;7.238;2022-12-13T04:44:00;18.20;;;11.70;;
1082;SDS011;530;51.448;7.238;2022-12-13T04:46:27;18.10;;;11.40;;
1082;SDS011;530;51.448;7.238;2022-12-13T04:48:53;18.43;;;11.77;;
1082;SDS011;530;51.448;7.238;2022-12-13T04:51:19;24.30;;;12.77;;
1082;SDS011;530;51.448;7.238;2022-12-13T04:53:44;22.27;;;12.73;;
1082;SDS011;530;51.448;7.238;2022-12-13T04:56:10;19.77;;;12.53;;
1082;SDS011;530;51.448;7.238;2022-12-13T04:58:36;18.67;;;11.13;;
1082;SDS011;530;51.448;7.238;2022-12-13T05:01:04;20.83;;;12.80;;
1082;SDS011;530;51.448;7.238;2022-12-13T05:03:31;21.07;;;11.87;;
1082;SDS011;530;51.448;7.238;2022-12-13T05:05:56;17.27;;;12.37;;
1082;SDS011;530;51.448;7.238;2022-12-13T05:08:22;19.13;;;13.30;;
1082;SDS011;530;51.448;7.238;2022-12-13T05:10:47;19.47;;;11.33;;
1082;SDS011;530;51.448;7.238;2022-12-13T05:13:13;19.73;;;12.47;;
1082;SDS011;530;51.448;7.238;2022-12-13T05:15:39;20.57;;;11.60;;
1082;SDS011;530;51.448;7.238;2022-12-13T05:18:05;17.33;;;12.17;;
1082;SDS011;530;51.448;7.238;2022-12-13T05:20:33;19.40;;;12.20;;
1082;SDS011;530;51.448;7.238;2022-12-13T05:22:59;16.90;;;12.37;;
1082;SDS011;530;51.448;7.238;2022-12-13T05:25:25;20.77;;;13.40;;
1082;SDS011;530;51.448;7.238;2022-12-13T05:27:51;22.17;;;13.30;;
1082;SDS011;530;51.448;7.238;2022-12-13T05:30:17;19.47;;;12.27;;
1082;SDS011;530;51.448;7.238;2022-12-13T05:32:43;18.47;;;12.33;;
1082;SDS011;530;51.448;7.238;2022-12-13T05:35:09;18.00;;;12.47;;
1082;SDS011;530;51.448;7.238;2022-12-13T05:37:39;20.13;;;13.00;;
1082;SDS011;530;51.448;7.238;2022-12-13T05:40:06;17.37;;;11.13;;
1082;SDS011;530;51.448;7.238;2022-12-13T05:42:32;24.37;;;15.13;;
1082;SDS011;530;51.448;7.238;2022-12-13T05:44:58;20.17;;;13.00;;
1082;SDS011;530;51.448;7.238;2022-12-13T05:47:23;20.47;;;12.67;;
1082;SDS011;530;51.448;7.238;2022-12-13T05:49:49;20.43;;;12.90;;
1082;SDS011;530;51.448;7.238;2022-12-13T05:52:19;19.90;;;12.70;;
1082;SDS011;530;51.448;7.238;2022-12-13T05:54:46;19.50;;;12.40;;
1082;SDS011;530;51.448;7.238;2022-12-13T05:57:12;23.10;;;14.50;;
1082;SDS011;530;51.448;7.238;2022-12-13T05:59:39;21.20;;;13.60;;
1082;SDS011;530;51.448;7.238;2022-12-13T06:02:04;22.67;;;13.17;;
1082;SDS011;530;51.448;7.238;2022-12-13T06:04:30;18.90;;;13.27;;
1082;SDS011;530;51.448;7.238;2022-12-13T06:06:56;19.60;;;13.30;;
1082;SDS011;530;51.448;7.238;2022-12-13T06:09:22;21.77;;;12.90;;
1082;SDS011;530;51.448;7.238;2022-12-13T06:11:48;24.27;;;13.37;;
1082;SDS011;530;51.448;7.238;2022-12-13T06:14:13;19.93;;;12.33;;
1082;SDS011;530;51.448;7.238;2022-12-13T06:16:39;19.50;;;13.60;;
1082;SDS011;530;51.448;7.238;2022-12-13T06:19:05;19.97;;;12.87;;
1082;SDS011;530;51.448;7.238;2022-12-13T06:21:32;21.07;;;12.60;;
1082;SDS011;530;51.448;7.238;2022-12-13T06:23:58;21.13;;;13.77;;
1082;SDS011;530;51.448;7.238;2022-12-13T06:26:24;23.63;;;14.20;;
1082;SDS011;530;51.448;7.238;2022-12-13T06:28:49;22.80;;;14.00;;
1082;SDS011;530;51.448;7.238;2022-12-13T06:31:15;21.90;;;13.57;;
1082;SDS011;530;51.448;7.238;2022-12-13T06:33:40;20.80;;;13.80;;
1082;SDS011;530;51.448;7.238;2022-12-13T06:36:06;20.73;;;13.73;;
1082;SDS011;530;51.448;7.238;2022-12-13T06:38:32;22.03;;;14.33;;
1082;SDS011;530;51.448;7.238;2022-12-13T06:41:05;37.57;;;19.77;;
1082;SDS011;530;51.448;7.238;2022-12-13T06:43:44;48.67;;;29.47;;
1082;SDS011;530;51.448;7.238;2022-12-13T06:46:11;99.97;;;51.50;;
1082;SDS011;530;51.448;7.238;2022-12-13T06:48:37;175.10;;;82.67;;
1082;SDS011;530;51.448;7.238;2022-12-13T06:51:06;165.17;;;78.60;;
1082;SDS011;530;51.448;7.238;2022-12-13T06:53:33;135.63;;;64.87;;
1082;SDS011;530;51.448;7.238;2022-12-13T06:56:10;141.53;;;71.57;;
1082;SDS011;530;51.448;7.238;2022-12-13T06:58:37;103.80;;;54.60;;
1082;SDS011;530;51.448;7.238;2022-12-13T07:01:08;69.90;;;37.50;;
1082;SDS011;530;51.448;7.238;2022-12-13T07:03:43;41.77;;;26.10;;
1082;SDS011;530;51.448;7.238;2022-12-13T07:06:13;36.17;;;22.30;;
1082;SDS011;530;51.448;7.238;2022-12-13T07:08:41;29.40;;;16.80;;
1082;SDS011;530;51.448;7.238;2022-12-13T07:11:14;34.33;;;21.70;;
1082;SDS011;530;51.448;7.238;2022-12-13T07:13:41;33.67;;;19.63;;
1082;SDS011;530;51.448;7.238;2022-12-13T07:16:07;32.33;;;20.73;;
1082;SDS011;530;51.448;7.238;2022-12-13T07:18:34;32.20;;;19.63;;
1082;SDS011;530;51.448;7.238;2022-12-13T07:21:02;29.33;;;18.60;;
1082;SDS011;530;51.448;7.238;2022-12-13T07:23:33;24.30;;;17.00;;
1082;SDS011;530;51.448;7.238;2022-12-13T07:25:59;22.77;;;14.97;;
1082;SDS011;530;51.448;7.238;2022-12-13T07:28:25;25.97;;;14.53;;
1082;SDS011;530;51.448;7.238;2022-12-13T07:30:51;23.20;;;14.90;;
1082;SDS011;530;51.448;7.238;2022-12-13T07:33:16;22.93;;;14.27;;
1082;SDS011;530;51.448;7.238;2022-12-13T07:35:42;23.23;;;15.10;;
1082;SDS011;530;51.448;7.238;2022-12-13T07:38:09;23.50;;;15.40;;
1082;SDS011;530;51.448;7.238;2022-12-13T07:40:35;20.10;;;13.73;;
1082;SDS011;530;51.448;7.238;2022-12-13T07:43:03;22.80;;;15.63;;
1082;SDS011;530;51.448;7.238;2022-12-13T07:45:29;24.50;;;13.43;;
1082;SDS011;530;51.448;7.238;2022-12-13T07:47:55;20.27;;;13.90;;
1082;SDS011;530;51.448;7.238;2022-12-13T07:50:21;19.23;;;13.73;;
1082;SDS011;530;51.448;7.238;2022-12-13T07:52:47;25.73;;;14.30;;
1082;SDS011;530;51.448;7.238;2022-12-13T07:55:14;22.00;;;13.90;;
1082;SDS011;530;51.448;7.238;2022-12-13T07:57:41;22.10;;;13.77;;
1082;SDS011;530;51.448;7.238;2022-12-13T08:00:10;22.87;;;12.57;;
1082;SDS011;530;51.448;7.238;2022-12-13T08:02:36;19.87;;;13.37;;
1082;SDS011;530;51.448;7.238;2022-12-13T08:05:03;21.20;;;13.83;;
1082;SDS011;530;51.448;7.238;2022-12-13T08:07:29;20.67;;;12.83;;
1082;SDS011;530;51.448;7.238;2022-12-13T08:09:55;24.03;;;13.20;;
1082;SDS011;530;51.448;7.238;2022-12-13T08:12:20;20.10;;;13.30;;
1082;SDS011;530;51.448;7.238;2022-12-13T08:14:46;18.20;;;13.43;;
1082;SDS011;530;51.448;7.238;2022-12-13T08:17:11;22.30;;;13.37;;
1082;SDS011;530;51.448;7.238;2022-12-13T08:19:37;25.20;;;14.10;;
1082;SDS011;530;51.448;7.238;2022-12-13T08:22:03;20.50;;;12.70;;
1082;SDS011;530;51.448;7.238;2022-12-13T08:24:29;22.50;;;13.70;;
1082;SDS011;530;51.448;7.238;2022-12-13T08:26:58;24.70;;;14.90;;
1082;SDS011;530;51.448;7.238;2022-12-13T08:29:25;20.33;;;13.37;;
1082;SDS011;530;51.448;7.238;2022-12-13T08:31:52;20.50;;;12.67;;
1082;SDS011;530;51.448;7.238;2022-12-13T08:34:17;22.20;;;15.27;;
1082;SDS011;530;51.448;7.238;2022-12-13T08:36:43;20.90;;;13.93;;
1082;SDS011;530;51.448;7.238;2022-12-13T08:39:09;20.17;;;14.07;;
1082;SDS011;530;51.448;7.238;2022-12-13T08:41:34;20.53;;;13.43;;
1082;SDS011;530;51.448;7.238;2022-12-13T08:44:00;18.90;;;12.57;;
1082;SDS011;530;51.448;7.238;2022-12-13T08:46:25;19.50;;;12.43;;
1082;SDS011;530;51.448;7.238;2022-12-13T08:48:54;21.80;;;12.97;;
1082;SDS011;530;51.448;7.238;2022-12-13T08:51:20;21.63;;;13.93;;
1082;SDS011;530;51.448;7.238;2022-12-13T08:53:49;18.80;;;12.73;;
1082;SDS011;530;51.448;7.238;2022-12-13T08:56:15;21.60;;;14.27;;
1082;SDS011;530;51.448;7.238;2022-12-13T08:58:48;20.07;;;12.93;;
1082;SDS011;530;51.448;7.238;2022-12-13T09:01:15;20.63;;;13.43;;
1082;SDS011;530;51.448;7.238;2022-12-13T09:03:41;21.30;;;13.47;;
1082;SDS011;530;51.448;7.238;2022-12-13T09:06:10;21.07;;;12.50;;
1082;SDS011;530;51.448;7.238;2022-12-13T09:08:38;22.57;;;14.43;;
1082;SDS011;530;51.448;7.238;2022-12-13T09:11:05;21.27;;;12.47;;
1082;SDS011;530;51.448;7.238;2022-12-13T09:13:32;19.90;;;13.90;;
1082;SDS011;530;51.448;7.238;2022-12-13T09:16:18;19.83;;;12.17;;
1082;SDS011;530;51.448;7.238;2022-12-13T09:18:48;17.97;;;13.13;;
1082;SDS011;530;51.448;7.238;2022-12-13T09:21:17;17.20;;;12.70;;
1082;SDS011;530;51.448;7.238;2022-12-13T09:23:44;19.00;;;12.23;;
1082;SDS011;530;51.448;7.238;2022-12-13T09:26:10;16.07;;;11.70;;
1082;SDS011;530;51.448;7.238;2022-12-13T09:28:38;18.33;;;12.40;;
1082;SDS011;530;51.448;7.238;2022-12-13T09:33:37;17.40;;;12.00;;
1082;SDS011;530;51.448;7.238;2022-12-13T09:36:04;19.13;;;13.53;;
1082;SDS011;530;51.448;7.238;2022-12-13T09:38:34;17.63;;;13.03;;
1082;SDS011;530;51.448;7.238;2022-12-13T09:41:20;16.93;;;11.90;;
1082;SDS011;530;51.448;7.238;2022-12-13T09:44:13;17.23;;;12.33;;
1082;SDS011;530;51.448;7.238;2022-12-13T09:46:45;19.30;;;12.40;;
1082;SDS011;530;51.448;7.238;2022-12-13T09:52:00;18.37;;;12.57;;
1082;SDS011;530;51.448;7.238;2022-12-13T09:54:27;18.00;;;13.03;;
1082;SDS011;530;51.448;7.238;2022-12-13T09:56:53;17.70;;;12.67;;
1082;SDS011;530;51.448;7.238;2022-12-13T09:59:25;18.80;;;13.00;;
1082;SDS011;530;51.448;7.238;2022-12-13T10:01:55;17.00;;;12.63;;
1082;SDS011;530;51.448;7.238;2022-12-13T10:04:26;17.87;;;12.17;;
1082;SDS011;530;51.448;7.238;2022-12-13T10:06:53;17.30;;;13.10;;
1082;SDS011;530;51.448;7.238;2022-12-13T10:09:20;17.80;;;11.97;;
1082;SDS011;530;51.448;7.238;2022-12-13T10:11:50;17.10;;;12.43;;
1082;SDS011;530;51.448;7.238;2022-12-13T10:14:22;17.60;;;12.23;;
1082;SDS011;530;51.448;7.238;2022-12-13T10:16:54;16.57;;;12.07;;
1082;SDS011;530;51.448;7.238;2022-12-13T10:19:33;18.87;;;13.20;;
1082;SDS011;530;51.448;7.238;2022-12-13T10:22:11;14.30;;;11.43;;
1082;SDS011;530;51.448;7.238;2022-12-13T10:24:47;17.00;;;12.70;;
1082;SDS011;530;51.448;7.238;2022-12-13T10:27:24;16.70;;;11.50;;
1082;SDS011;530;51.448;7.238;2022-12-13T10:32:52;16.90;;;10.97;;
1082;SDS011;530;51.448;7.238;2022-12-13T10:35:21;14.20;;;10.70;;
1082;SDS011;530;51.448;7.238;2022-12-13T10:37:52;16.00;;;12.00;;
1082;SDS011;530;51.448;7.238;2022-12-13T10:40:32;15.80;;;10.73;;
1082;SDS011;530;51.448;7.238;2022-12-13T10:45:36;16.50;;;11.97;;
1082;SDS011;530;51.448;7.238;2022-12-13T10:48:02;15.70;;;11.00;;
1082;SDS011;530;51.448;7.238;2022-12-13T10:50:28;13.77;;;10.20;;
1082;SDS011;530;51.448;7.238;2022-12-13T10:52:55;13.30;;;10.50;;
1082;SDS011;530;51.448;7.238;2022-12-13T10:55:27;13.20;;;10.50;;
1082;SDS011;530;51.448;7.238;2022-12-13T10:58:05;14.17;;;10.00;;
1082;SDS011;530;51.448;7.238;2022-12-13T11:00:37;17.23;;;11.20;;
1082;SDS011;530;51.448;7.238;2022-12-13T11:03:05;12.80;;;9.80;;
1082;SDS011;530;51.448;7.238;2022-12-13T11:05:34;15.00;;;10.43;;
1082;SDS011;530;51.448;7.238;2022-12-13T11:08:11;15.17;;;10.77;;
1082;SDS011;530;51.448;7.238;2022-12-13T11:10:38;15.90;;;10.87;;
1082;SDS011;530;51.448;7.238;2022-12-13T11:13:05;17.00;;;10.63;;
1082;SDS011;530;51.448;7.238;2022-12-13T11:15:33;14.80;;;9.80;;
1082;SDS011;530;51.448;7.238;2022-12-13T11:18:03;15.00;;;11.20;;
1082;SDS011;530;51.448;7.238;2022-12-13T11:20:35;14.17;;;10.60;;
1082;SDS011;530;51.448;7.238;2022-12-13T11:25:39;14.93;;;10.40;;
1082;SDS011;530;51.448;7.238;2022-12-13T11:36:43;13.47;;;9.80;;
1082;SDS011;530;51.448;7.238;2022-12-13T11:39:29;15.30;;;10.77;;
1082;SDS011;530;51.448;7.238;2022-12-13T11:45:05;16.17;;;8.83;;
1082;SDS011;530;51.448;7.238;2022-12-13T11:47:34;16.00;;;10.80;;
1082;SDS011;530;51.448;7.238;2022-12-13T11:50:19;13.20;;;9.77;;
1082;SDS011;530;51.448;7.238;2022-12-13T11:52:54;15.33;;;10.20;;
1082;SDS011;530;51.448;7.238;2022-12-13T11:55:27;14.70;;;10.23;;
1082;SDS011;530;51.448;7.238;2022-12-13T12:00:48;14.13;;;10.60;;
1082;SDS011;530;51.448;7.238;2022-12-13T12:03:21;17.40;;;11.53;;
1082;SDS011;530;51.448;7.238;2022-12-13T12:05:58;14.40;;;11.77;;
1082;SDS011;530;51.448;7.238;2022-12-13T12:08:38;10.90;;;9.30;;
1082;SDS011;530;51.448;7.238;2022-12-13T12:11:33;11.07;;;9.40;;
1082;SDS011;530;51.448;7.238;2022-12-13T12:14:02;10.97;;;8.97;;
1082;SDS011;530;51.448;7.238;2022-12-13T12:19:07;13.80;;;10.63;;
1082;SDS011;530;51.448;7.238;2022-12-13T12:24:38;13.13;;;9.27;;
1082;SDS011;530;51.448;7.238;2022-12-13T12:30:20;14.33;;;10.43;;
1082;SDS011;530;51.448;7.238;2022-12-13T12:32:51;11.10;;;8.97;;
1082;SDS011;530;51.448;7.238;2022-12-13T12:46:56;17.13;;;11.67;;
1082;SDS011;530;51.448;7.238;2022-12-13T12:52:38;15.43;;;10.60;;
1082;SDS011;530;51.448;7.238;2022-12-13T12:55:11;13.90;;;9.60;;
1082;SDS011;530;51.448;7.238;2022-12-13T12:58:00;20.30;;;12.70;;
1082;SDS011;530;51.448;7.238;2022-12-13T13:01:23;17.00;;;12.40;;
1082;SDS011;530;51.448;7.238;2022-12-13T13:03:35;22.17;;;13.93;;
1082;SDS011;530;51.448;7.238;2022-12-13T13:08:39;20.57;;;14.77;;
1082;SDS011;530;51.448;7.238;2022-12-13T13:11:23;18.63;;;14.40;;
1082;SDS011;530;51.448;7.238;2022-12-13T13:26:26;24.30;;;15.00;;
1082;SDS011;530;51.448;7.238;2022-12-13T13:28:53;23.07;;;15.87;;
1082;SDS011;530;51.448;7.238;2022-12-13T13:31:20;18.20;;;13.93;;
1082;SDS011;530;51.448;7.238;2022-12-13T13:33:47;21.70;;;14.60;;
1082;SDS011;530;51.448;7.238;2022-12-13T13:39:14;21.80;;;14.23;;
1082;SDS011;530;51.448;7.238;2022-12-13T13:53:10;16.20;;;13.13;;
1082;SDS011;530;51.448;7.238;2022-12-13T13:56:09;19.17;;;13.07;;
1082;SDS011;530;51.448;7.238;2022-12-13T14:27:42;17.03;;;10.90;;
1082;SDS011;530;51.448;7.238;2022-12-13T14:30:13;21.87;;;12.00;;
1082;SDS011;530;51.448;7.238;2022-12-13T14:32:42;15.20;;;10.80;;
1082;SDS011;530;51.448;7.238;2022-12-13T14:35:20;18.07;;;11.20;;
1082;SDS011;530;51.448;7.238;2022-12-13T14:37:53;17.97;;;10.27;;
1082;SDS011;530;51.448;7.238;2022-12-13T14:40:31;16.90;;;11.60;;
1082;SDS011;530;51.448;7.238;2022-12-13T14:42:59;18.83;;;10.80;;
1082;SDS011;530;51.448;7.238;2022-12-13T14:45:26;18.37;;;10.77;;
1082;SDS011;530;51.448;7.238;2022-12-13T14:47:57;21.63;;;11.03;;
1082;SDS011;530;51.448;7.238;2022-12-13T14:50:26;17.27;;;9.77;;
1082;SDS011;530;51.448;7.238;2022-12-13T14:52:55;15.67;;;11.77;;
1082;SDS011;530;51.448;7.238;2022-12-13T14:57:55;14.67;;;10.40;;
1082;SDS011;530;51.448;7.238;2022-12-13T15:00:29;18.73;;;11.27;;
1082;SDS011;530;51.448;7.238;2022-12-13T15:02:57;18.63;;;9.93;;
1082;SDS011;530;51.448;7.238;2022-12-13T15:05:29;16.30;;;10.37;;
1082;SDS011;530;51.448;7.238;2022-12-13T15:08:07;18.20;;;11.27;;
1082;SDS011;530;51.448;7.238;2022-12-13T15:10:37;19.80;;;10.80;;
1082;SDS011;530;51.448;7.238;2022-12-13T15:13:21;16.50;;;11.30;;
1082;SDS011;530;51.448;7.238;2022-12-13T15:16:02;19.00;;;10.33;;
1082;SDS011;530;51.448;7.238;2022-12-13T15:18:34;18.40;;;10.23;;
1082;SDS011;530;51.448;7.238;2022-12-13T15:21:00;17.90;;;10.60;;
1082;SDS011;530;51.448;7.238;2022-12-13T15:23:36;19.60;;;11.13;;
1082;SDS011;530;51.448;7.238;2022-12-13T15:26:07;16.90;;;10.80;;
1082;SDS011;530;51.448;7.238;2022-12-13T15:28:38;22.90;;;10.90;;
1082;SDS011;530;51.448;7.238;2022-12-13T15:31:06;17.50;;;10.23;;
1082;SDS011;530;51.448;7.238;2022-12-13T15:33:32;17.27;;;11.10;;
1082;SDS011;530;51.448;7.238;2022-12-13T15:36:08;19.10;;;11.43;;
1082;SDS011;530;51.448;7.238;2022-12-13T15:38:59;20.33;;;10.60;;
1082;SDS011;530;51.448;7.238;2022-12-13T15:41:26;22.00;;;12.97;;
1082;SDS011;530;51.448;7.238;2022-12-13T15:43:57;17.27;;;12.90;;
1082;SDS011;530;51.448;7.238;2022-12-13T15:46:26;17.13;;;12.20;;
1082;SDS011;530;51.448;7.238;2022-12-13T15:48:55;18.27;;;11.80;;
1082;SDS011;530;51.448;7.238;2022-12-13T15:51:23;21.17;;;12.60;;
1082;SDS011;530;51.448;7.238;2022-12-13T15:59:35;18.63;;;11.70;;
1082;SDS011;530;51.448;7.238;2022-12-13T16:02:01;21.37;;;10.93;;
1082;SDS011;530;51.448;7.238;2022-12-13T16:04:29;19.33;;;11.70;;
1082;SDS011;530;51.448;7.238;2022-12-13T16:06:59;23.37;;;12.57;;
1082;SDS011;530;51.448;7.238;2022-12-13T16:09:30;17.87;;;12.33;;
1082;SDS011;530;51.448;7.238;2022-12-13T16:12:00;16.77;;;10.77;;
1082;SDS011;530;51.448;7.238;2022-12-13T16:17:21;19.77;;;12.50;;
1082;SDS011;530;51.448;7.238;2022-12-13T16:19:53;22.27;;;13.07;;
1082;SDS011;530;51.448;7.238;2022-12-13T16:22:21;20.73;;;12.97;;
1082;SDS011;530;51.448;7.238;2022-12-13T16:24:48;21.33;;;12.30;;
1082;SDS011;530;51.448;7.238;2022-12-13T16:27:14;17.97;;;11.70;;
1082;SDS011;530;51.448;7.238;2022-12-13T16:29:40;18.83;;;12.97;;
1082;SDS011;530;51.448;7.238;2022-12-13T16:32:06;26.23;;;14.77;;
1082;SDS011;530;51.448;7.238;2022-12-13T16:34:31;19.00;;;12.13;;
1082;SDS011;530;51.448;7.238;2022-12-13T16:36:57;20.47;;;13.17;;
1082;SDS011;530;51.448;7.238;2022-12-13T16:39:24;16.77;;;10.60;;
1082;SDS011;530;51.448;7.238;2022-12-13T16:41:50;19.30;;;12.10;;
1082;SDS011;530;51.448;7.238;2022-12-13T16:46:49;18.33;;;12.80;;
1082;SDS011;530;51.448;7.238;2022-12-13T16:49:17;17.03;;;11.40;;
1082;SDS011;530;51.448;7.238;2022-12-13T16:51:48;17.73;;;10.10;;
1082;SDS011;530;51.448;7.238;2022-12-13T16:54:15;17.30;;;10.70;;
1082;SDS011;530;51.448;7.238;2022-12-13T16:56:42;20.43;;;12.27;;
1082;SDS011;530;51.448;7.238;2022-12-13T16:59:10;17.30;;;11.83;;
1082;SDS011;530;51.448;7.238;2022-12-13T17:01:41;18.30;;;11.40;;
1082;SDS011;530;51.448;7.238;2022-12-13T17:04:12;20.10;;;13.43;;
1082;SDS011;530;51.448;7.238;2022-12-13T17:06:39;20.23;;;11.60;;
1082;SDS011;530;51.448;7.238;2022-12-13T17:09:06;19.23;;;12.80;;
1082;SDS011;530;51.448;7.238;2022-12-13T17:11:32;20.00;;;13.40;;
1082;SDS011;530;51.448;7.238;2022-12-13T17:13:59;19.33;;;12.13;;
1082;SDS011;530;51.448;7.238;2022-12-13T17:16:25;18.77;;;12.77;;
1082;SDS011;530;51.448;7.238;2022-12-13T17:18:51;21.20;;;13.80;;
1082;SDS011;530;51.448;7.238;2022-12-13T17:21:19;20.97;;;12.50;;
1082;SDS011;530;51.448;7.238;2022-12-13T17:23:48;17.10;;;11.70;;
1082;SDS011;530;51.448;7.238;2022-12-13T17:26:17;16.23;;;11.00;;
1082;SDS011;530;51.448;7.238;2022-12-13T17:28:43;19.17;;;12.47;;
1082;SDS011;530;51.448;7.238;2022-12-13T17:31:10;18.47;;;12.23;;
1082;SDS011;530;51.448;7.238;2022-12-13T17:33:37;21.77;;;12.67;;
1082;SDS011;530;51.448;7.238;2022-12-13T17:36:03;19.67;;;13.13;;
1082;SDS011;530;51.448;7.238;2022-12-13T17:38:30;15.40;;;11.83;;
1082;SDS011;530;51.448;7.238;2022-12-13T17:40:56;17.80;;;11.80;;
1082;SDS011;530;51.448;7.238;2022-12-13T17:43:22;15.37;;;10.70;;
1082;SDS011;530;51.448;7.238;2022-12-13T17:45:53;17.27;;;12.17;;
1082;SDS011;530;51.448;7.238;2022-12-13T17:48:20;14.70;;;10.20;;
1082;SDS011;530;51.448;7.238;2022-12-13T17:50:46;19.33;;;11.33;;